sensor_id;sensor_type;location;lat;lon;timestamp;P1;durP1;ratioP1;P2;durP2;ratioP2
79308;SDS011;68767;53.078;7.386;2023-08-07T00:02:25;21.13;;;8.48;;
79308;SDS011;68767;53.078;7.386;2023-08-07T00:04:52;14.68;;;8.13;;
79308;SDS011;68767;53.078;7.386;2023-08-07T00:07:19;17.63;;;8.20;;
79308;SDS011;68767;53.078;7.386;2023-08-07T00:09:46;17.30;;;8.65;;
79308;SDS011;68767;53.078;7.386;2023-08-07T00:12:13;13.88;;;7.57;;
79308;SDS011;68767;53.078;7.386;2023-08-07T00:14:41;14.75;;;7.18;;
79308;SDS011;68767;53.078;7.386;2023-08-07T00:17:08;14.20;;;7.50;;
79308;SDS011;68767;53.078;7.386;2023-08-07T00:19:35;15.13;;;7.93;;
79308;SDS011;68767;53.078;7.386;2023-08-07T00:22:02;11.68;;;7.82;;
79308;SDS011;68767;53.078;7.386;2023-08-07T00:24:29;15.23;;;8.18;;
79308;SDS011;68767;53.078;7.386;2023-08-07T00:26:58;20.20;;;9.15;;
79308;SDS011;68767;53.078;7.386;2023-08-07T00:29:25;15.88;;;8.98;;
79308;SDS011;68767;53.078;7.386;2023-08-07T00:31:52;15.50;;;8.18;;
79308;SDS011;68767;53.078;7.386;2023-08-07T00:34:19;13.95;;;7.50;;
79308;SDS011;68767;53.078;7.386;2023-08-07T00:36:46;17.83;;;7.97;;
79308;SDS011;68767;53.078;7.386;2023-08-07T00:39:13;13.88;;;7.57;;
79308;SDS011;68767;53.078;7.386;2023-08-07T00:41:40;23.38;;;7.95;;
79308;SDS011;68767;53.078;7.386;2023-08-07T00:44:07;19.30;;;7.95;;
79308;SDS011;68767;53.078;7.386;2023-08-07T00:46:35;23.13;;;9.00;;
79308;SDS011;68767;53.078;7.386;2023-08-07T00:49:02;19.77;;;8.20;;
79308;SDS011;68767;53.078;7.386;2023-08-07T00:51:30;22.23;;;8.35;;
79308;SDS011;68767;53.078;7.386;2023-08-07T00:53:57;15.82;;;8.85;;
79308;SDS011;68767;53.078;7.386;2023-08-07T00:56:25;16.67;;;9.00;;
79308;SDS011;68767;53.078;7.386;2023-08-07T00:58:52;22.25;;;8.98;;
79308;SDS011;68767;53.078;7.386;2023-08-07T01:01:20;18.27;;;9.20;;
79308;SDS011;68767;53.078;7.386;2023-08-07T01:03:47;17.88;;;8.73;;
79308;SDS011;68767;53.078;7.386;2023-08-07T01:06:14;20.55;;;8.52;;
79308;SDS011;68767;53.078;7.386;2023-08-07T01:08:41;14.30;;;7.47;;
79308;SDS011;68767;53.078;7.386;2023-08-07T01:11:15;19.40;;;7.82;;
79308;SDS011;68767;53.078;7.386;2023-08-07T01:16:45;17.42;;;8.02;;
79308;SDS011;68767;53.078;7.386;2023-08-07T01:19:24;17.45;;;8.75;;
79308;SDS011;68767;53.078;7.386;2023-08-07T01:24:37;15.75;;;9.10;;
79308;SDS011;68767;53.078;7.386;2023-08-07T01:35:23;17.73;;;8.95;;
79308;SDS011;68767;53.078;7.386;2023-08-07T01:37:54;22.75;;;9.50;;
79308;SDS011;68767;53.078;7.386;2023-08-07T01:40:23;24.35;;;9.80;;
79308;SDS011;68767;53.078;7.386;2023-08-07T01:42:52;20.65;;;8.20;;
79308;SDS011;68767;53.078;7.386;2023-08-07T01:45:23;16.10;;;8.63;;
79308;SDS011;68767;53.078;7.386;2023-08-07T01:47:51;20.65;;;9.30;;
79308;SDS011;68767;53.078;7.386;2023-08-07T01:50:22;21.05;;;8.32;;
79308;SDS011;68767;53.078;7.386;2023-08-07T01:52:51;15.32;;;8.18;;
79308;SDS011;68767;53.078;7.386;2023-08-07T01:55:22;16.90;;;7.30;;
79308;SDS011;68767;53.078;7.386;2023-08-07T01:57:50;15.55;;;7.00;;
79308;SDS011;68767;53.078;7.386;2023-08-07T02:00:17;14.90;;;6.40;;
79308;SDS011;68767;53.078;7.386;2023-08-07T02:02:44;12.30;;;5.57;;
79308;SDS011;68767;53.078;7.386;2023-08-07T02:05:15;20.35;;;6.65;;
79308;SDS011;68767;53.078;7.386;2023-08-07T02:07:42;19.17;;;5.80;;
79308;SDS011;68767;53.078;7.386;2023-08-07T02:10:09;11.30;;;6.07;;
79308;SDS011;68767;53.078;7.386;2023-08-07T02:12:36;9.00;;;4.88;;
79308;SDS011;68767;53.078;7.386;2023-08-07T02:15:03;8.55;;;5.15;;
79308;SDS011;68767;53.078;7.386;2023-08-07T02:17:31;10.50;;;5.20;;
79308;SDS011;68767;53.078;7.386;2023-08-07T02:19:58;9.75;;;4.53;;
79308;SDS011;68767;53.078;7.386;2023-08-07T02:22:25;9.60;;;4.10;;
79308;SDS011;68767;53.078;7.386;2023-08-07T02:24:52;10.75;;;4.05;;
79308;SDS011;68767;53.078;7.386;2023-08-07T02:27:19;9.20;;;4.43;;
79308;SDS011;68767;53.078;7.386;2023-08-07T02:29:46;10.73;;;4.72;;
79308;SDS011;68767;53.078;7.386;2023-08-07T02:32:13;7.88;;;4.03;;
79308;SDS011;68767;53.078;7.386;2023-08-07T02:34:41;10.02;;;4.75;;
79308;SDS011;68767;53.078;7.386;2023-08-07T02:37:08;10.95;;;5.18;;
79308;SDS011;68767;53.078;7.386;2023-08-07T02:39:35;11.00;;;5.35;;
79308;SDS011;68767;53.078;7.386;2023-08-07T02:42:02;12.68;;;6.35;;
79308;SDS011;68767;53.078;7.386;2023-08-07T02:44:29;13.95;;;4.90;;
79308;SDS011;68767;53.078;7.386;2023-08-07T02:46:56;12.10;;;5.47;;
79308;SDS011;68767;53.078;7.386;2023-08-07T02:49:24;11.93;;;5.05;;
79308;SDS011;68767;53.078;7.386;2023-08-07T02:51:51;10.23;;;5.40;;
79308;SDS011;68767;53.078;7.386;2023-08-07T02:54:18;12.15;;;5.22;;
79308;SDS011;68767;53.078;7.386;2023-08-07T02:56:45;12.85;;;5.45;;
79308;SDS011;68767;53.078;7.386;2023-08-07T02:59:12;10.77;;;5.63;;
79308;SDS011;68767;53.078;7.386;2023-08-07T03:01:39;13.18;;;6.38;;
79308;SDS011;68767;53.078;7.386;2023-08-07T03:04:06;16.15;;;6.35;;
79308;SDS011;68767;53.078;7.386;2023-08-07T03:06:33;16.45;;;6.25;;
79308;SDS011;68767;53.078;7.386;2023-08-07T03:09:00;11.52;;;6.32;;
79308;SDS011;68767;53.078;7.386;2023-08-07T03:11:27;17.45;;;7.68;;
79308;SDS011;68767;53.078;7.386;2023-08-07T03:13:54;31.98;;;14.65;;
79308;SDS011;68767;53.078;7.386;2023-08-07T03:16:22;14.13;;;6.30;;
79308;SDS011;68767;53.078;7.386;2023-08-07T03:18:49;16.20;;;6.65;;
79308;SDS011;68767;53.078;7.386;2023-08-07T03:21:16;12.90;;;6.68;;
79308;SDS011;68767;53.078;7.386;2023-08-07T03:23:43;18.75;;;7.53;;
79308;SDS011;68767;53.078;7.386;2023-08-07T03:26:11;15.65;;;6.40;;
79308;SDS011;68767;53.078;7.386;2023-08-07T03:28:41;17.40;;;7.65;;
79308;SDS011;68767;53.078;7.386;2023-08-07T03:31:08;16.35;;;6.68;;
79308;SDS011;68767;53.078;7.386;2023-08-07T03:33:36;13.32;;;6.40;;
79308;SDS011;68767;53.078;7.386;2023-08-07T03:36:04;18.17;;;7.00;;
79308;SDS011;68767;53.078;7.386;2023-08-07T03:38:32;15.27;;;7.38;;
79308;SDS011;68767;53.078;7.386;2023-08-07T03:40:59;17.73;;;8.82;;
79308;SDS011;68767;53.078;7.386;2023-08-07T03:43:27;20.10;;;8.20;;
79308;SDS011;68767;53.078;7.386;2023-08-07T03:45:57;21.15;;;10.52;;
79308;SDS011;68767;53.078;7.386;2023-08-07T03:48:29;28.83;;;11.30;;
79308;SDS011;68767;53.078;7.386;2023-08-07T03:51:03;28.63;;;11.68;;
79308;SDS011;68767;53.078;7.386;2023-08-07T03:53:44;30.13;;;13.10;;
79308;SDS011;68767;53.078;7.386;2023-08-07T03:56:11;35.72;;;14.48;;
79308;SDS011;68767;53.078;7.386;2023-08-07T03:58:39;34.30;;;14.25;;
79308;SDS011;68767;53.078;7.386;2023-08-07T04:01:06;46.33;;;14.20;;
79308;SDS011;68767;53.078;7.386;2023-08-07T04:03:34;43.72;;;15.23;;
79308;SDS011;68767;53.078;7.386;2023-08-07T04:06:01;35.10;;;14.02;;
79308;SDS011;68767;53.078;7.386;2023-08-07T04:08:28;36.55;;;16.58;;
79308;SDS011;68767;53.078;7.386;2023-08-07T04:13:26;39.08;;;14.85;;
79308;SDS011;68767;53.078;7.386;2023-08-07T04:15:54;40.20;;;14.68;;
79308;SDS011;68767;53.078;7.386;2023-08-07T04:18:21;37.50;;;15.15;;
79308;SDS011;68767;53.078;7.386;2023-08-07T04:20:52;31.52;;;13.60;;
79308;SDS011;68767;53.078;7.386;2023-08-07T04:23:20;38.95;;;13.90;;
79308;SDS011;68767;53.078;7.386;2023-08-07T04:25:48;33.85;;;13.13;;
79308;SDS011;68767;53.078;7.386;2023-08-07T04:28:19;31.67;;;12.52;;
79308;SDS011;68767;53.078;7.386;2023-08-07T04:30:48;35.92;;;12.35;;
79308;SDS011;68767;53.078;7.386;2023-08-07T04:33:20;25.65;;;11.35;;
79308;SDS011;68767;53.078;7.386;2023-08-07T04:35:50;30.48;;;11.32;;
79308;SDS011;68767;53.078;7.386;2023-08-07T04:38:17;28.52;;;11.30;;
79308;SDS011;68767;53.078;7.386;2023-08-07T04:40:45;35.33;;;11.10;;
79308;SDS011;68767;53.078;7.386;2023-08-07T04:43:16;27.70;;;12.10;;
79308;SDS011;68767;53.078;7.386;2023-08-07T04:45:44;29.67;;;12.68;;
79308;SDS011;68767;53.078;7.386;2023-08-07T04:48:12;34.97;;;13.48;;
79308;SDS011;68767;53.078;7.386;2023-08-07T04:50:40;29.23;;;12.38;;
79308;SDS011;68767;53.078;7.386;2023-08-07T04:53:07;31.45;;;11.05;;
79308;SDS011;68767;53.078;7.386;2023-08-07T04:55:34;29.45;;;12.27;;
79308;SDS011;68767;53.078;7.386;2023-08-07T04:58:01;32.03;;;12.30;;
79308;SDS011;68767;53.078;7.386;2023-08-07T05:00:28;30.17;;;11.25;;
79308;SDS011;68767;53.078;7.386;2023-08-07T05:02:55;23.88;;;9.98;;
79308;SDS011;68767;53.078;7.386;2023-08-07T05:05:22;29.05;;;10.70;;
79308;SDS011;68767;53.078;7.386;2023-08-07T05:07:50;27.33;;;8.70;;
79308;SDS011;68767;53.078;7.386;2023-08-07T05:10:17;27.95;;;9.73;;
79308;SDS011;68767;53.078;7.386;2023-08-07T05:12:44;25.85;;;8.50;;
79308;SDS011;68767;53.078;7.386;2023-08-07T05:15:11;20.52;;;8.57;;
79308;SDS011;68767;53.078;7.386;2023-08-07T05:17:38;20.13;;;8.57;;
79308;SDS011;68767;53.078;7.386;2023-08-07T05:20:06;24.77;;;8.90;;
79308;SDS011;68767;53.078;7.386;2023-08-07T05:22:33;27.08;;;8.73;;
79308;SDS011;68767;53.078;7.386;2023-08-07T05:25:00;21.70;;;9.30;;
79308;SDS011;68767;53.078;7.386;2023-08-07T05:27:27;32.38;;;9.18;;
79308;SDS011;68767;53.078;7.386;2023-08-07T05:29:54;23.23;;;7.82;;
79308;SDS011;68767;53.078;7.386;2023-08-07T05:32:21;26.92;;;8.02;;
79308;SDS011;68767;53.078;7.386;2023-08-07T05:34:48;25.95;;;7.50;;
79308;SDS011;68767;53.078;7.386;2023-08-07T05:37:15;33.92;;;7.05;;
79308;SDS011;68767;53.078;7.386;2023-08-07T05:39:42;19.23;;;7.40;;
79308;SDS011;68767;53.078;7.386;2023-08-07T05:42:09;29.33;;;7.75;;
79308;SDS011;68767;53.078;7.386;2023-08-07T05:44:36;18.13;;;6.38;;
79308;SDS011;68767;53.078;7.386;2023-08-07T05:47:03;16.80;;;4.65;;
79308;SDS011;68767;53.078;7.386;2023-08-07T05:49:31;18.92;;;4.18;;
79308;SDS011;68767;53.078;7.386;2023-08-07T05:51:58;14.23;;;4.47;;
79308;SDS011;68767;53.078;7.386;2023-08-07T05:54:25;13.27;;;3.80;;
79308;SDS011;68767;53.078;7.386;2023-08-07T05:56:52;18.77;;;4.28;;
79308;SDS011;68767;53.078;7.386;2023-08-07T05:59:19;14.50;;;3.97;;
79308;SDS011;68767;53.078;7.386;2023-08-07T06:01:46;11.85;;;4.45;;
79308;SDS011;68767;53.078;7.386;2023-08-07T06:04:12;22.05;;;4.38;;
79308;SDS011;68767;53.078;7.386;2023-08-07T06:06:40;21.40;;;3.72;;
79308;SDS011;68767;53.078;7.386;2023-08-07T06:09:09;16.65;;;4.78;;
79308;SDS011;68767;53.078;7.386;2023-08-07T06:11:37;19.13;;;4.50;;
79308;SDS011;68767;53.078;7.386;2023-08-07T06:14:04;16.55;;;5.20;;
79308;SDS011;68767;53.078;7.386;2023-08-07T06:16:31;25.55;;;4.68;;
79308;SDS011;68767;53.078;7.386;2023-08-07T06:18:58;28.90;;;5.20;;
79308;SDS011;68767;53.078;7.386;2023-08-07T06:21:25;22.92;;;4.82;;
79308;SDS011;68767;53.078;7.386;2023-08-07T06:23:54;12.10;;;4.47;;
79308;SDS011;68767;53.078;7.386;2023-08-07T06:26:21;19.92;;;4.90;;
79308;SDS011;68767;53.078;7.386;2023-08-07T06:28:48;18.73;;;5.32;;
79308;SDS011;68767;53.078;7.386;2023-08-07T06:31:16;17.55;;;4.70;;
79308;SDS011;68767;53.078;7.386;2023-08-07T06:33:44;20.27;;;5.28;;
79308;SDS011;68767;53.078;7.386;2023-08-07T06:36:11;29.77;;;5.18;;
79308;SDS011;68767;53.078;7.386;2023-08-07T06:38:38;24.05;;;4.97;;
79308;SDS011;68767;53.078;7.386;2023-08-07T06:41:05;32.08;;;5.10;;
79308;SDS011;68767;53.078;7.386;2023-08-07T06:43:32;24.90;;;4.82;;
79308;SDS011;68767;53.078;7.386;2023-08-07T06:45:59;18.45;;;5.68;;
79308;SDS011;68767;53.078;7.386;2023-08-07T06:48:26;25.60;;;4.82;;
79308;SDS011;68767;53.078;7.386;2023-08-07T06:50:53;23.70;;;4.93;;
79308;SDS011;68767;53.078;7.386;2023-08-07T06:53:20;26.02;;;5.25;;
79308;SDS011;68767;53.078;7.386;2023-08-07T06:55:47;16.42;;;4.50;;
79308;SDS011;68767;53.078;7.386;2023-08-07T06:58:14;9.73;;;3.58;;
79308;SDS011;68767;53.078;7.386;2023-08-07T07:00:41;17.25;;;4.15;;
79308;SDS011;68767;53.078;7.386;2023-08-07T07:03:08;10.82;;;3.95;;
79308;SDS011;68767;53.078;7.386;2023-08-07T07:05:36;15.48;;;4.85;;
79308;SDS011;68767;53.078;7.386;2023-08-07T07:08:03;14.73;;;3.78;;
79308;SDS011;68767;53.078;7.386;2023-08-07T07:10:31;15.07;;;3.28;;
79308;SDS011;68767;53.078;7.386;2023-08-07T07:12:58;9.75;;;3.42;;
79308;SDS011;68767;53.078;7.386;2023-08-07T07:15:25;17.13;;;4.68;;
79308;SDS011;68767;53.078;7.386;2023-08-07T07:17:52;19.30;;;3.97;;
79308;SDS011;68767;53.078;7.386;2023-08-07T07:20:19;12.25;;;3.45;;
79308;SDS011;68767;53.078;7.386;2023-08-07T07:22:46;13.82;;;4.97;;
79308;SDS011;68767;53.078;7.386;2023-08-07T07:25:14;17.05;;;4.75;;
79308;SDS011;68767;53.078;7.386;2023-08-07T07:27:41;20.00;;;4.05;;
79308;SDS011;68767;53.078;7.386;2023-08-07T07:30:08;17.85;;;4.88;;
79308;SDS011;68767;53.078;7.386;2023-08-07T07:32:35;21.35;;;4.47;;
79308;SDS011;68767;53.078;7.386;2023-08-07T07:35:02;15.02;;;3.60;;
79308;SDS011;68767;53.078;7.386;2023-08-07T07:37:30;8.50;;;3.30;;
79308;SDS011;68767;53.078;7.386;2023-08-07T07:39:58;17.80;;;3.85;;
79308;SDS011;68767;53.078;7.386;2023-08-07T07:42:25;14.50;;;3.22;;
79308;SDS011;68767;53.078;7.386;2023-08-07T07:44:52;14.80;;;3.65;;
79308;SDS011;68767;53.078;7.386;2023-08-07T07:47:19;11.32;;;2.55;;
79308;SDS011;68767;53.078;7.386;2023-08-07T07:49:46;6.55;;;2.88;;
79308;SDS011;68767;53.078;7.386;2023-08-07T07:52:14;13.02;;;3.25;;
79308;SDS011;68767;53.078;7.386;2023-08-07T07:54:41;15.70;;;3.28;;
79308;SDS011;68767;53.078;7.386;2023-08-07T07:57:08;11.88;;;2.85;;
79308;SDS011;68767;53.078;7.386;2023-08-07T07:59:35;15.10;;;3.88;;
79308;SDS011;68767;53.078;7.386;2023-08-07T08:02:02;9.38;;;3.30;;
79308;SDS011;68767;53.078;7.386;2023-08-07T08:04:29;16.92;;;4.18;;
79308;SDS011;68767;53.078;7.386;2023-08-07T08:06:57;16.02;;;3.40;;
79308;SDS011;68767;53.078;7.386;2023-08-07T08:09:24;14.15;;;3.28;;
79308;SDS011;68767;53.078;7.386;2023-08-07T08:11:51;7.95;;;3.67;;
79308;SDS011;68767;53.078;7.386;2023-08-07T08:14:18;26.65;;;5.38;;
79308;SDS011;68767;53.078;7.386;2023-08-07T08:16:45;17.05;;;3.72;;
79308;SDS011;68767;53.078;7.386;2023-08-07T08:19:12;17.23;;;4.05;;
79308;SDS011;68767;53.078;7.386;2023-08-07T08:21:38;11.40;;;3.65;;
79308;SDS011;68767;53.078;7.386;2023-08-07T08:24:07;9.98;;;3.72;;
79308;SDS011;68767;53.078;7.386;2023-08-07T08:26:34;19.95;;;3.78;;
79308;SDS011;68767;53.078;7.386;2023-08-07T08:29:01;14.45;;;3.17;;
79308;SDS011;68767;53.078;7.386;2023-08-07T08:31:28;17.10;;;4.30;;
79308;SDS011;68767;53.078;7.386;2023-08-07T08:33:55;15.40;;;3.30;;
79308;SDS011;68767;53.078;7.386;2023-08-07T08:36:22;8.70;;;2.95;;
79308;SDS011;68767;53.078;7.386;2023-08-07T08:38:49;12.60;;;3.13;;
79308;SDS011;68767;53.078;7.386;2023-08-07T08:41:18;15.80;;;2.70;;
79308;SDS011;68767;53.078;7.386;2023-08-07T08:43:46;10.50;;;2.78;;
79308;SDS011;68767;53.078;7.386;2023-08-07T08:46:16;17.10;;;3.40;;
79308;SDS011;68767;53.078;7.386;2023-08-07T08:48:50;10.65;;;2.72;;
79308;SDS011;68767;53.078;7.386;2023-08-07T08:51:21;11.02;;;3.08;;
79308;SDS011;68767;53.078;7.386;2023-08-07T08:53:52;11.93;;;2.63;;
79308;SDS011;68767;53.078;7.386;2023-08-07T08:56:20;17.05;;;3.08;;
79308;SDS011;68767;53.078;7.386;2023-08-07T08:58:49;13.75;;;4.60;;
79308;SDS011;68767;53.078;7.386;2023-08-07T09:01:17;11.68;;;3.60;;
79308;SDS011;68767;53.078;7.386;2023-08-07T09:03:45;16.80;;;2.58;;
79308;SDS011;68767;53.078;7.386;2023-08-07T09:06:12;13.23;;;3.20;;
79308;SDS011;68767;53.078;7.386;2023-08-07T09:08:40;14.57;;;3.40;;
79308;SDS011;68767;53.078;7.386;2023-08-07T09:11:12;10.27;;;3.47;;
79308;SDS011;68767;53.078;7.386;2023-08-07T09:13:40;18.08;;;3.33;;
79308;SDS011;68767;53.078;7.386;2023-08-07T09:16:09;9.50;;;2.97;;
79308;SDS011;68767;53.078;7.386;2023-08-07T09:18:38;15.45;;;3.67;;
79308;SDS011;68767;53.078;7.386;2023-08-07T09:21:05;19.17;;;3.65;;
79308;SDS011;68767;53.078;7.386;2023-08-07T09:23:33;9.73;;;3.50;;
79308;SDS011;68767;53.078;7.386;2023-08-07T09:26:01;13.35;;;3.67;;
79308;SDS011;68767;53.078;7.386;2023-08-07T09:28:31;17.98;;;3.30;;
79308;SDS011;68767;53.078;7.386;2023-08-07T09:30:59;17.60;;;4.18;;
79308;SDS011;68767;53.078;7.386;2023-08-07T09:33:29;24.55;;;4.22;;
79308;SDS011;68767;53.078;7.386;2023-08-07T09:35:57;19.55;;;4.05;;
79308;SDS011;68767;53.078;7.386;2023-08-07T09:38:29;14.30;;;3.45;;
79308;SDS011;68767;53.078;7.386;2023-08-07T09:41:01;18.25;;;4.05;;
79308;SDS011;68767;53.078;7.386;2023-08-07T09:43:35;16.50;;;3.10;;
79308;SDS011;68767;53.078;7.386;2023-08-07T09:46:03;12.98;;;3.03;;
79308;SDS011;68767;53.078;7.386;2023-08-07T09:48:32;13.85;;;3.50;;
79308;SDS011;68767;53.078;7.386;2023-08-07T09:51:09;9.90;;;3.70;;
79308;SDS011;68767;53.078;7.386;2023-08-07T09:53:36;10.05;;;3.65;;
79308;SDS011;68767;53.078;7.386;2023-08-07T09:56:03;11.25;;;3.22;;
79308;SDS011;68767;53.078;7.386;2023-08-07T09:58:30;11.18;;;2.65;;
79308;SDS011;68767;53.078;7.386;2023-08-07T10:01:01;12.73;;;3.40;;
79308;SDS011;68767;53.078;7.386;2023-08-07T10:03:31;13.23;;;3.78;;
79308;SDS011;68767;53.078;7.386;2023-08-07T10:05:58;11.52;;;3.20;;
79308;SDS011;68767;53.078;7.386;2023-08-07T10:08:26;9.98;;;2.65;;
79308;SDS011;68767;53.078;7.386;2023-08-07T10:10:53;10.77;;;3.83;;
79308;SDS011;68767;53.078;7.386;2023-08-07T10:13:20;14.93;;;3.00;;
79308;SDS011;68767;53.078;7.386;2023-08-07T10:16:03;11.82;;;3.15;;
79308;SDS011;68767;53.078;7.386;2023-08-07T10:18:31;13.27;;;3.20;;
79308;SDS011;68767;53.078;7.386;2023-08-07T10:20:58;11.25;;;3.35;;
79308;SDS011;68767;53.078;7.386;2023-08-07T10:23:27;15.15;;;3.45;;
79308;SDS011;68767;53.078;7.386;2023-08-07T10:25:54;15.88;;;3.42;;
79308;SDS011;68767;53.078;7.386;2023-08-07T10:28:23;20.67;;;3.55;;
79308;SDS011;68767;53.078;7.386;2023-08-07T10:30:55;14.45;;;4.13;;
79308;SDS011;68767;53.078;7.386;2023-08-07T10:33:22;16.10;;;4.28;;
79308;SDS011;68767;53.078;7.386;2023-08-07T10:35:51;9.52;;;3.10;;
79308;SDS011;68767;53.078;7.386;2023-08-07T10:38:20;13.98;;;3.15;;
79308;SDS011;68767;53.078;7.386;2023-08-07T10:41:02;13.93;;;3.33;;
79308;SDS011;68767;53.078;7.386;2023-08-07T10:43:30;14.27;;;3.63;;
79308;SDS011;68767;53.078;7.386;2023-08-07T10:46:02;8.05;;;3.00;;
79308;SDS011;68767;53.078;7.386;2023-08-07T10:48:37;15.45;;;3.17;;
79308;SDS011;68767;53.078;7.386;2023-08-07T10:51:08;11.07;;;2.70;;
79308;SDS011;68767;53.078;7.386;2023-08-07T10:53:37;7.90;;;2.40;;
79308;SDS011;68767;53.078;7.386;2023-08-07T10:56:09;13.27;;;2.65;;
79308;SDS011;68767;53.078;7.386;2023-08-07T10:58:38;11.75;;;3.35;;
79308;SDS011;68767;53.078;7.386;2023-08-07T11:03:56;10.65;;;2.80;;
79308;SDS011;68767;53.078;7.386;2023-08-07T11:06:25;11.65;;;2.85;;
79308;SDS011;68767;53.078;7.386;2023-08-07T11:08:59;16.15;;;3.00;;
79308;SDS011;68767;53.078;7.386;2023-08-07T11:11:27;11.25;;;3.00;;
79308;SDS011;68767;53.078;7.386;2023-08-07T11:13:54;10.88;;;3.08;;
79308;SDS011;68767;53.078;7.386;2023-08-07T11:16:21;15.63;;;3.22;;
79308;SDS011;68767;53.078;7.386;2023-08-07T11:18:49;8.75;;;2.55;;
79308;SDS011;68767;53.078;7.386;2023-08-07T11:21:17;14.50;;;3.13;;
79308;SDS011;68767;53.078;7.386;2023-08-07T11:23:45;20.20;;;4.43;;
79308;SDS011;68767;53.078;7.386;2023-08-07T11:26:12;15.10;;;3.05;;
79308;SDS011;68767;53.078;7.386;2023-08-07T11:28:39;12.98;;;3.78;;
79308;SDS011;68767;53.078;7.386;2023-08-07T11:31:06;16.02;;;3.90;;
79308;SDS011;68767;53.078;7.386;2023-08-07T11:33:33;15.68;;;3.33;;
79308;SDS011;68767;53.078;7.386;2023-08-07T11:36:02;19.90;;;3.22;;
79308;SDS011;68767;53.078;7.386;2023-08-07T11:38:34;11.82;;;3.08;;
79308;SDS011;68767;53.078;7.386;2023-08-07T11:41:04;11.27;;;3.10;;
79308;SDS011;68767;53.078;7.386;2023-08-07T11:43:33;16.20;;;3.75;;
79308;SDS011;68767;53.078;7.386;2023-08-07T11:46:05;12.45;;;2.47;;
79308;SDS011;68767;53.078;7.386;2023-08-07T11:48:34;6.93;;;2.55;;
79308;SDS011;68767;53.078;7.386;2023-08-07T11:51:03;10.32;;;3.45;;
79308;SDS011;68767;53.078;7.386;2023-08-07T11:53:31;11.52;;;2.38;;
79308;SDS011;68767;53.078;7.386;2023-08-07T11:56:01;8.32;;;2.10;;
79308;SDS011;68767;53.078;7.386;2023-08-07T11:58:35;13.23;;;2.78;;
79308;SDS011;68767;53.078;7.386;2023-08-07T12:01:10;6.65;;;2.42;;
79308;SDS011;68767;53.078;7.386;2023-08-07T12:03:43;9.90;;;2.85;;
79308;SDS011;68767;53.078;7.386;2023-08-07T12:06:31;9.88;;;3.05;;
79308;SDS011;68767;53.078;7.386;2023-08-07T12:08:58;6.50;;;1.52;;
79308;SDS011;68767;53.078;7.386;2023-08-07T12:11:26;5.80;;;2.20;;
79308;SDS011;68767;53.078;7.386;2023-08-07T12:13:55;10.48;;;2.97;;
79308;SDS011;68767;53.078;7.386;2023-08-07T12:16:22;9.73;;;2.08;;
79308;SDS011;68767;53.078;7.386;2023-08-07T12:18:50;7.20;;;2.13;;
79308;SDS011;68767;53.078;7.386;2023-08-07T12:21:19;9.77;;;2.30;;
79308;SDS011;68767;53.078;7.386;2023-08-07T12:23:49;9.43;;;2.42;;
79308;SDS011;68767;53.078;7.386;2023-08-07T12:26:17;12.65;;;2.38;;
79308;SDS011;68767;53.078;7.386;2023-08-07T12:28:44;11.88;;;3.33;;
79308;SDS011;68767;53.078;7.386;2023-08-07T12:31:11;14.15;;;3.10;;
79308;SDS011;68767;53.078;7.386;2023-08-07T12:33:38;12.32;;;2.70;;
79308;SDS011;68767;53.078;7.386;2023-08-07T12:36:05;10.52;;;2.70;;
79308;SDS011;68767;53.078;7.386;2023-08-07T12:38:45;19.48;;;2.67;;
79308;SDS011;68767;53.078;7.386;2023-08-07T12:41:14;13.90;;;2.95;;
79308;SDS011;68767;53.078;7.386;2023-08-07T12:43:44;7.68;;;2.53;;
79308;SDS011;68767;53.078;7.386;2023-08-07T12:46:11;11.95;;;2.30;;
79308;SDS011;68767;53.078;7.386;2023-08-07T12:48:41;8.30;;;2.10;;
79308;SDS011;68767;53.078;7.386;2023-08-07T12:51:08;11.30;;;2.25;;
79308;SDS011;68767;53.078;7.386;2023-08-07T12:53:34;9.75;;;2.20;;
79308;SDS011;68767;53.078;7.386;2023-08-07T12:56:01;8.18;;;2.65;;
79308;SDS011;68767;53.078;7.386;2023-08-07T12:58:29;9.93;;;2.25;;
79308;SDS011;68767;53.078;7.386;2023-08-07T13:00:56;6.93;;;2.40;;
79308;SDS011;68767;53.078;7.386;2023-08-07T13:03:23;7.53;;;2.15;;
79308;SDS011;68767;53.078;7.386;2023-08-07T13:05:51;12.45;;;2.22;;
79308;SDS011;68767;53.078;7.386;2023-08-07T13:08:17;7.35;;;2.05;;
79308;SDS011;68767;53.078;7.386;2023-08-07T13:10:45;6.72;;;2.10;;
79308;SDS011;68767;53.078;7.386;2023-08-07T13:13:15;7.15;;;2.10;;
79308;SDS011;68767;53.078;7.386;2023-08-07T13:15:42;7.18;;;2.63;;
79308;SDS011;68767;53.078;7.386;2023-08-07T13:18:09;7.88;;;2.25;;
79308;SDS011;68767;53.078;7.386;2023-08-07T13:20:37;4.40;;;1.70;;
79308;SDS011;68767;53.078;7.386;2023-08-07T13:23:07;13.40;;;2.47;;
79308;SDS011;68767;53.078;7.386;2023-08-07T13:25:34;6.03;;;1.70;;
79308;SDS011;68767;53.078;7.386;2023-08-07T13:28:01;8.63;;;4.05;;
79308;SDS011;68767;53.078;7.386;2023-08-07T13:30:33;5.63;;;2.17;;
79308;SDS011;68767;53.078;7.386;2023-08-07T13:33:03;5.93;;;1.80;;
79308;SDS011;68767;53.078;7.386;2023-08-07T13:35:30;9.00;;;1.90;;
79308;SDS011;68767;53.078;7.386;2023-08-07T13:37:59;4.22;;;1.80;;
79308;SDS011;68767;53.078;7.386;2023-08-07T13:40:26;6.88;;;2.20;;
79308;SDS011;68767;53.078;7.386;2023-08-07T13:42:53;7.93;;;2.22;;
79308;SDS011;68767;53.078;7.386;2023-08-07T13:45:20;8.85;;;2.13;;
79308;SDS011;68767;53.078;7.386;2023-08-07T13:47:47;7.15;;;2.08;;
79308;SDS011;68767;53.078;7.386;2023-08-07T13:50:14;5.70;;;2.05;;
79308;SDS011;68767;53.078;7.386;2023-08-07T13:52:42;10.45;;;2.28;;
79308;SDS011;68767;53.078;7.386;2023-08-07T13:55:08;7.43;;;2.60;;
79308;SDS011;68767;53.078;7.386;2023-08-07T13:57:36;9.13;;;2.50;;
79308;SDS011;68767;53.078;7.386;2023-08-07T14:00:03;16.63;;;2.70;;
79308;SDS011;68767;53.078;7.386;2023-08-07T14:02:30;7.60;;;2.42;;
79308;SDS011;68767;53.078;7.386;2023-08-07T14:04:59;19.10;;;3.88;;
79308;SDS011;68767;53.078;7.386;2023-08-07T14:07:26;11.38;;;2.75;;
79308;SDS011;68767;53.078;7.386;2023-08-07T14:09:53;11.27;;;4.13;;
79308;SDS011;68767;53.078;7.386;2023-08-07T14:12:20;13.52;;;2.60;;
79308;SDS011;68767;53.078;7.386;2023-08-07T14:14:47;7.43;;;2.85;;
79308;SDS011;68767;53.078;7.386;2023-08-07T14:17:14;10.38;;;2.72;;
79308;SDS011;68767;53.078;7.386;2023-08-07T14:19:41;7.00;;;2.22;;
79308;SDS011;68767;53.078;7.386;2023-08-07T14:22:08;9.32;;;2.53;;
79308;SDS011;68767;53.078;7.386;2023-08-07T14:24:35;11.00;;;3.08;;
79308;SDS011;68767;53.078;7.386;2023-08-07T14:27:02;11.38;;;3.60;;
79308;SDS011;68767;53.078;7.386;2023-08-07T14:29:29;10.73;;;2.47;;
79308;SDS011;68767;53.078;7.386;2023-08-07T14:31:56;8.98;;;3.10;;
79308;SDS011;68767;53.078;7.386;2023-08-07T14:34:23;8.00;;;2.45;;
79308;SDS011;68767;53.078;7.386;2023-08-07T14:36:50;9.30;;;2.90;;
79308;SDS011;68767;53.078;7.386;2023-08-07T14:39:18;11.95;;;2.78;;
79308;SDS011;68767;53.078;7.386;2023-08-07T14:41:47;12.25;;;2.35;;
79308;SDS011;68767;53.078;7.386;2023-08-07T14:44:14;7.43;;;2.83;;
79308;SDS011;68767;53.078;7.386;2023-08-07T14:46:41;10.50;;;2.90;;
79308;SDS011;68767;53.078;7.386;2023-08-07T14:49:08;7.13;;;2.63;;
79308;SDS011;68767;53.078;7.386;2023-08-07T14:51:35;7.80;;;3.03;;
79308;SDS011;68767;53.078;7.386;2023-08-07T14:54:02;10.30;;;2.88;;
79308;SDS011;68767;53.078;7.386;2023-08-07T14:56:29;13.52;;;2.85;;
79308;SDS011;68767;53.078;7.386;2023-08-07T14:58:56;8.38;;;2.72;;
79308;SDS011;68767;53.078;7.386;2023-08-07T15:01:23;7.50;;;2.30;;